createdAt,value
2018-05-07T00:00:07.971Z,16.12
2018-05-07T00:02:37.195Z,16.22
2018-05-07T00:05:05.623Z,16.57
2018-05-07T00:07:34.100Z,16.46
2018-05-07T00:10:03.287Z,15.58
2018-05-07T00:12:31.743Z,15.09
2018-05-07T00:15:00.248Z,14.64
2018-05-07T00:17:29.421Z,14.85
2018-05-07T00:19:57.869Z,14.69
2018-05-07T00:22:27.065Z,14.82
2018-05-07T00:24:55.529Z,15.18
2018-05-07T00:27:23.981Z,14.88
2018-05-07T00:29:53.186Z,14.60
2018-05-07T00:32:21.639Z,14.47
2018-05-07T00:34:50.067Z,15.22
2018-05-07T00:37:18.495Z,14.81
2018-05-07T00:39:46.964Z,15.80
2018-05-07T00:42:15.391Z,15.44
2018-05-07T00:44:43.837Z,15.08
2018-05-07T00:47:12.279Z,15.49
2018-05-07T00:49:40.698Z,15.17
2018-05-07T00:52:09.166Z,15.35
2018-05-07T00:54:55.826Z,14.73
2018-05-07T00:57:24.301Z,14.63
2018-05-07T00:59:52.756Z,14.35
2018-05-07T01:02:21.178Z,14.36
2018-05-07T01:04:49.621Z,14.33
2018-05-07T01:07:18.810Z,14.07
2018-05-07T01:09:47.279Z,14.66
2018-05-07T01:12:15.722Z,15.07
2018-05-07T01:14:44.160Z,14.34
2018-05-07T01:17:13.370Z,14.16
2018-05-07T01:19:41.812Z,13.97
2018-05-07T01:22:10.249Z,13.86
2018-05-07T01:24:38.656Z,13.85
2018-05-07T01:27:07.083Z,14.29
2018-05-07T01:29:35.554Z,14.24
2018-05-07T01:32:04.003Z,14.40
2018-05-07T01:34:32.491Z,14.79
2018-05-07T01:37:00.894Z,14.03
2018-05-07T01:39:29.322Z,13.17
2018-05-07T01:41:58.544Z,13.25
2018-05-07T01:44:28.540Z,13.02
2018-05-07T01:46:57.023Z,13.22
2018-05-07T01:49:25.459Z,14.00
2018-05-07T01:51:53.875Z,13.45
2018-05-07T01:54:22.329Z,13.48
2018-05-07T01:56:50.766Z,14.59
2018-05-07T01:59:19.200Z,14.44
2018-05-07T02:01:47.647Z,13.59
2018-05-07T02:04:16.093Z,13.95
2018-05-07T02:06:44.555Z,13.99
2018-05-07T02:09:13.036Z,14.27
2018-05-07T02:11:43.175Z,14.32
2018-05-07T02:14:11.642Z,14.84
2018-05-07T02:16:40.108Z,13.88
2018-05-07T02:19:08.553Z,13.86
2018-05-07T02:21:36.978Z,13.91
2018-05-07T02:24:05.494Z,13.54
2018-05-07T02:26:33.925Z,13.32
2018-05-07T02:29:03.127Z,13.10
2018-05-07T02:31:31.591Z,13.02
2018-05-07T02:34:00.025Z,12.50
2018-05-07T02:36:28.493Z,12.31
2018-05-07T02:38:56.998Z,12.40
2018-05-07T02:41:25.387Z,12.73
2018-05-07T02:43:53.828Z,12.96
2018-05-07T02:46:22.328Z,13.10
2018-05-07T02:48:50.792Z,12.99
2018-05-07T02:51:19.230Z,12.57
2018-05-07T02:53:47.661Z,12.85
2018-05-07T02:56:16.115Z,12.31
2018-05-07T02:58:44.597Z,12.43
2018-05-07T03:01:13.056Z,12.70
2018-05-07T03:03:41.461Z,12.36
2018-05-07T03:06:09.896Z,12.31
2018-05-07T03:08:38.333Z,12.41
2018-05-07T03:11:07.524Z,12.21
2018-05-07T03:13:35.977Z,12.17
2018-05-07T03:16:04.404Z,12.36
2018-05-07T03:18:32.854Z,11.53
2018-05-07T03:21:01.307Z,12.11
2018-05-07T03:23:29.719Z,12.13
2018-05-07T03:25:58.179Z,13.00
2018-05-07T03:28:27.382Z,12.50
2018-05-07T03:30:55.809Z,12.22
2018-05-07T03:33:24.263Z,12.24
2018-05-07T03:35:52.683Z,12.40
2018-05-07T03:38:21.166Z,12.28
2018-05-07T03:40:49.627Z,12.33
2018-05-07T03:43:18.086Z,12.27
2018-05-07T03:45:46.528Z,11.99
2018-05-07T03:48:15.713Z,12.06
2018-05-07T03:50:44.177Z,12.22
2018-05-07T03:53:13.364Z,12.37
2018-05-07T03:55:41.795Z,12.48
2018-05-07T03:58:11.007Z,12.96
2018-05-07T04:00:39.427Z,12.77
2018-05-07T04:03:08.632Z,12.17
2018-05-07T04:05:37.134Z,11.84
2018-05-07T04:08:05.583Z,11.46
2018-05-07T04:10:34.026Z,11.74
2018-05-07T04:13:02.481Z,12.00
2018-05-07T04:15:31.728Z,12.56
2018-05-07T04:18:17.683Z,12.71
2018-05-07T04:21:03.601Z,12.06
2018-05-07T04:23:49.529Z,11.97
2018-05-07T04:26:18.091Z,11.54
2018-05-07T04:28:46.517Z,11.81
2018-05-07T04:31:14.946Z,12.28
2018-05-07T04:33:43.417Z,11.82
2018-05-07T04:36:11.852Z,11.80
2018-05-07T04:38:40.317Z,11.83
2018-05-07T04:41:08.746Z,12.05
2018-05-07T04:43:37.233Z,12.66
2018-05-07T04:46:05.800Z,12.50
2018-05-07T04:48:35.064Z,12.90
2018-05-07T04:51:04.368Z,12.66
2018-05-07T04:53:32.799Z,12.10
2018-05-07T04:56:01.254Z,11.84
2018-05-07T04:58:29.690Z,12.39
2018-05-07T05:00:58.164Z,12.19
2018-05-07T05:03:26.576Z,12.55
2018-05-07T05:05:55.798Z,12.57
2018-05-07T05:08:24.980Z,12.90
2018-05-07T05:10:53.402Z,12.61
2018-05-07T05:13:21.872Z,12.84
2018-05-07T05:15:50.318Z,12.41
2018-05-07T05:18:18.808Z,12.56
2018-05-07T05:20:47.263Z,12.55
2018-05-07T05:23:15.696Z,12.90
2018-05-07T05:25:44.117Z,13.12
2018-05-07T05:28:12.592Z,13.18
2018-05-07T05:30:41.010Z,12.97
2018-05-07T05:33:09.431Z,12.79
2018-05-07T05:35:37.887Z,13.05
2018-05-07T05:38:06.326Z,13.38
2018-05-07T05:40:34.795Z,13.52
2018-05-07T05:43:03.981Z,13.50
2018-05-07T05:45:32.440Z,13.59
2018-05-07T05:48:00.867Z,13.39
2018-05-07T05:50:29.317Z,13.35
2018-05-07T05:52:58.528Z,13.49
2018-05-07T05:55:26.964Z,13.57
2018-05-07T05:57:56.190Z,13.64
2018-05-07T06:00:24.636Z,13.66
2018-05-07T06:02:53.083Z,13.41
2018-05-07T06:05:21.529Z,13.43
2018-05-07T06:07:49.992Z,13.44
2018-05-07T06:10:18.459Z,13.54
2018-05-07T06:12:46.893Z,13.60
2018-05-07T06:15:15.356Z,13.61
2018-05-07T06:17:44.250Z,13.60
2018-05-07T06:20:12.721Z,13.63
2018-05-07T06:22:41.138Z,13.69
2018-05-07T06:25:10.378Z,13.75
2018-05-07T06:27:38.815Z,13.85
2018-05-07T06:30:07.277Z,13.93
2018-05-07T06:32:36.472Z,13.96
2018-05-07T06:35:04.885Z,14.01
2018-05-07T06:37:34.127Z,14.16
2018-05-07T06:40:02.589Z,14.23
2018-05-07T06:42:31.058Z,14.20
2018-05-07T06:44:59.490Z,14.31
2018-05-07T06:47:27.956Z,14.34
2018-05-07T06:49:57.166Z,14.35
2018-05-07T06:52:26.373Z,14.57
2018-05-07T06:54:54.812Z,14.58
2018-05-07T06:57:23.239Z,14.59
2018-05-07T06:59:51.672Z,14.51
2018-05-07T07:02:20.446Z,14.80
2018-05-07T07:04:48.806Z,14.82
2018-05-07T07:07:17.217Z,14.90
2018-05-07T07:09:45.640Z,14.92
2018-05-07T07:12:14.865Z,15.12
2018-05-07T07:14:44.047Z,15.27
2018-05-07T07:17:12.480Z,14.95
2018-05-07T07:19:41.686Z,15.16
2018-05-07T07:22:10.967Z,15.24
2018-05-07T07:24:39.403Z,15.34
2018-05-07T07:27:07.862Z,15.60
2018-05-07T07:29:36.282Z,15.87
2018-05-07T07:32:04.735Z,15.75
2018-05-07T07:34:33.196Z,15.96
2018-05-07T07:37:01.614Z,15.97
2018-05-07T07:39:30.142Z,16.04
2018-05-07T07:41:58.550Z,16.01
2018-05-07T07:44:27.033Z,16.46
2018-05-07T07:46:55.439Z,16.24
2018-05-07T07:49:23.862Z,16.32
2018-05-07T07:51:52.320Z,16.31
2018-05-07T07:54:20.761Z,16.61
2018-05-07T07:56:49.250Z,16.68
2018-05-07T07:59:17.701Z,16.93
2018-05-07T08:01:46.962Z,17.02
2018-05-07T08:04:15.496Z,17.23
2018-05-07T08:06:44.670Z,17.16
2018-05-07T08:09:13.863Z,17.46
2018-05-07T08:11:43.238Z,17.26
2018-05-07T08:14:11.686Z,17.33
2018-05-07T08:16:40.175Z,17.13
2018-05-07T08:19:08.693Z,17.55
2018-05-07T08:21:37.143Z,17.63
2018-05-07T08:24:06.426Z,17.37
2018-05-07T08:26:34.848Z,18.09
2018-05-07T08:29:03.375Z,17.84
2018-05-07T08:31:32.605Z,17.94
2018-05-07T08:34:01.049Z,18.58
2018-05-07T08:36:29.521Z,18.45
2018-05-07T08:38:57.959Z,18.33
2018-05-07T08:41:26.407Z,18.57
2018-05-07T08:43:54.849Z,18.67
2018-05-07T08:46:23.307Z,18.87
2018-05-07T08:48:51.740Z,18.47
2018-05-07T08:51:20.933Z,18.84
2018-05-07T08:53:49.400Z,18.82
2018-05-07T08:56:17.868Z,18.87
2018-05-07T08:58:47.092Z,19.11
2018-05-07T09:01:15.524Z,19.25
2018-05-07T09:03:43.990Z,19.58
2018-05-07T09:06:12.432Z,19.75
2018-05-07T09:08:41.747Z,19.54
2018-05-07T09:11:10.242Z,19.77
2018-05-07T09:13:39.561Z,20.18
2018-05-07T09:16:07.969Z,20.12
2018-05-07T09:18:36.424Z,19.94
2018-05-07T09:21:04.919Z,20.30
2018-05-07T09:23:33.366Z,20.36
2018-05-07T09:26:01.868Z,20.56
2018-05-07T09:28:30.299Z,20.65
2018-05-07T09:30:58.760Z,20.76
2018-05-07T09:33:27.274Z,20.84
2018-05-07T09:35:55.753Z,20.63
2018-05-07T09:38:24.180Z,21.11
2018-05-07T09:40:52.657Z,20.95
2018-05-07T09:43:21.130Z,20.90
2018-05-07T09:45:49.562Z,21.27
2018-05-07T09:48:18.035Z,21.32
2018-05-07T09:50:46.492Z,21.33
2018-05-07T09:53:14.954Z,21.45
2018-05-07T09:55:43.433Z,21.34
2018-05-07T09:58:11.859Z,21.42
2018-05-07T10:00:40.353Z,21.38
2018-05-07T10:03:08.795Z,21.46
2018-05-07T10:05:37.283Z,21.59
2018-05-07T10:08:06.541Z,21.98
2018-05-07T10:10:35.021Z,21.95
2018-05-07T10:13:03.495Z,21.78
2018-05-07T10:15:31.978Z,21.82
2018-05-07T10:18:00.461Z,22.05
2018-05-07T10:20:28.907Z,21.99
2018-05-07T10:22:57.391Z,22.06
2018-05-07T10:25:25.841Z,22.24
2018-05-07T10:27:54.301Z,22.12
2018-05-07T10:30:22.819Z,22.12
2018-05-07T10:32:51.344Z,22.20
2018-05-07T10:35:19.848Z,22.60
2018-05-07T10:37:48.269Z,22.45
2018-05-07T10:40:16.735Z,22.53
2018-05-07T10:42:45.194Z,22.29
2018-05-07T10:45:13.661Z,22.69
2018-05-07T10:47:42.128Z,22.72
2018-05-07T10:50:10.604Z,22.88
2018-05-07T10:52:39.064Z,22.70
2018-05-07T10:55:07.529Z,22.72
2018-05-07T10:57:36.046Z,23.14
2018-05-07T11:00:04.509Z,23.00
2018-05-07T11:02:32.969Z,22.94
2018-05-07T11:05:01.398Z,23.06
2018-05-07T11:07:29.885Z,23.30
2018-05-07T11:09:58.325Z,23.10
2018-05-07T11:12:26.793Z,22.95
2018-05-07T11:14:55.222Z,23.16
2018-05-07T11:17:23.670Z,23.41
2018-05-07T11:19:52.108Z,23.47
2018-05-07T11:22:20.546Z,23.62
2018-05-07T11:24:48.998Z,23.50
2018-05-07T11:27:18.231Z,23.58
2018-05-07T11:29:46.714Z,23.52
2018-05-07T11:32:15.151Z,23.80
2018-05-07T11:34:43.641Z,23.69
2018-05-07T11:37:12.861Z,23.58
2018-05-07T11:39:41.291Z,23.68
2018-05-07T11:42:09.797Z,23.89
2018-05-07T11:44:38.252Z,23.82
2018-05-07T11:47:06.751Z,23.60
2018-05-07T11:49:35.216Z,24.17
2018-05-07T11:52:03.683Z,24.16
2018-05-07T11:54:32.138Z,24.14
2018-05-07T11:57:00.628Z,24.27
2018-05-07T11:59:29.097Z,24.36
2018-05-07T12:01:57.518Z,24.36
2018-05-07T12:04:25.963Z,24.34
2018-05-07T12:06:54.447Z,24.55
2018-05-07T12:09:23.113Z,24.29
2018-05-07T12:11:51.569Z,24.51
2018-05-07T12:14:19.988Z,24.66
2018-05-07T12:16:48.453Z,24.54
2018-05-07T12:19:16.881Z,24.62
2018-05-07T12:21:45.343Z,24.70
2018-05-07T12:24:13.793Z,24.73
2018-05-07T12:26:42.273Z,24.71
2018-05-07T12:29:11.544Z,24.66
2018-05-07T12:31:40.063Z,24.69
2018-05-07T12:34:08.519Z,24.85
2018-05-07T12:36:37.006Z,24.89
2018-05-07T12:39:05.565Z,24.90
2018-05-07T12:41:34.021Z,25.02
2018-05-07T12:44:02.485Z,24.94
2018-05-07T12:46:30.942Z,25.03
2018-05-07T12:49:00.176Z,25.08
2018-05-07T12:51:28.639Z,25.14
2018-05-07T12:53:57.080Z,25.06
2018-05-07T12:56:27.261Z,25.01
2018-05-07T12:58:57.725Z,24.97
2018-05-07T13:01:26.208Z,25.18
2018-05-07T13:03:54.679Z,25.28
2018-05-07T13:06:23.168Z,25.36
2018-05-07T13:08:51.604Z,25.17
2018-05-07T13:11:20.071Z,25.22
2018-05-07T13:13:48.520Z,25.21
2018-05-07T13:16:16.942Z,25.46
2018-05-07T13:18:45.481Z,25.62
2018-05-07T13:21:14.952Z,25.48
2018-05-07T13:23:43.441Z,25.43
2018-05-07T13:26:11.870Z,25.57
2018-05-07T13:28:41.083Z,25.56
2018-05-07T13:31:09.560Z,25.72
2018-05-07T13:33:38.036Z,25.53
2018-05-07T13:36:06.489Z,25.61
2018-05-07T13:38:34.946Z,25.82
2018-05-07T13:41:03.398Z,25.72
2018-05-07T13:43:31.819Z,25.85
2018-05-07T13:46:01.963Z,25.83
2018-05-07T13:48:31.140Z,25.76
2018-05-07T13:51:03.169Z,25.76
2018-05-07T13:53:31.593Z,25.75
2018-05-07T13:56:00.044Z,25.88
2018-05-07T13:58:28.541Z,25.83
2018-05-07T14:00:56.974Z,25.86
2018-05-07T14:03:25.451Z,25.92
2018-05-07T14:05:53.883Z,25.98
2018-05-07T14:08:22.452Z,25.96
2018-05-07T14:10:52.845Z,25.72
2018-05-07T14:13:21.306Z,25.97
2018-05-07T14:15:49.751Z,26.11
2018-05-07T14:18:18.175Z,25.87
2018-05-07T14:20:46.611Z,25.81
2018-05-07T14:23:15.019Z,25.78
2018-05-07T14:25:43.489Z,26.15
2018-05-07T14:28:12.694Z,26.07
2018-05-07T14:30:41.172Z,26.14
2018-05-07T14:33:09.630Z,26.27
2018-05-07T14:35:38.099Z,26.25
2018-05-07T14:38:06.529Z,26.32
2018-05-07T14:40:34.962Z,26.39
2018-05-07T14:43:03.453Z,26.41
2018-05-07T14:45:32.664Z,26.44
2018-05-07T14:48:01.184Z,26.58
2018-05-07T14:50:30.394Z,26.48
2018-05-07T14:52:58.857Z,26.50
2018-05-07T14:55:27.283Z,26.52
2018-05-07T14:57:55.740Z,26.68
2018-05-07T15:00:24.150Z,26.45
2018-05-07T15:02:52.549Z,26.53
2018-05-07T15:05:20.972Z,26.45
2018-05-07T15:07:49.398Z,26.45
2018-05-07T15:10:17.905Z,26.53
2018-05-07T15:12:46.389Z,26.72
2018-05-07T15:15:14.853Z,26.53
2018-05-07T15:17:44.453Z,26.44
2018-05-07T15:20:12.929Z,26.50
2018-05-07T15:22:41.333Z,26.57
2018-05-07T15:25:09.793Z,26.52
2018-05-07T15:27:38.230Z,26.66
2018-05-07T15:30:06.667Z,26.77
2018-05-07T15:32:35.106Z,26.57
2018-05-07T15:35:03.546Z,26.54
2018-05-07T15:37:32.043Z,26.46
2018-05-07T15:40:00.483Z,26.49
2018-05-07T15:42:29.070Z,26.49
2018-05-07T15:44:57.501Z,26.65
2018-05-07T15:47:25.978Z,26.88
2018-05-07T15:49:54.450Z,26.87
2018-05-07T15:52:23.586Z,26.56
2018-05-07T15:54:52.110Z,26.49
2018-05-07T15:57:20.604Z,26.62
2018-05-07T15:59:49.082Z,26.80
2018-05-07T16:02:17.503Z,26.74
2018-05-07T16:04:45.943Z,26.67
2018-05-07T16:07:15.230Z,26.51
2018-05-07T16:09:43.676Z,26.57
2018-05-07T16:12:12.134Z,26.65
2018-05-07T16:14:40.581Z,26.50
2018-05-07T16:17:09.010Z,26.32
2018-05-07T16:19:37.472Z,26.47
2018-05-07T16:22:06.749Z,26.54
2018-05-07T16:24:35.132Z,26.60
2018-05-07T16:27:03.577Z,26.40
2018-05-07T16:29:32.011Z,26.47
2018-05-07T16:32:00.500Z,26.17
2018-05-07T16:34:29.058Z,26.33
2018-05-07T16:36:57.528Z,26.33
2018-05-07T16:39:25.991Z,26.65
2018-05-07T16:41:54.439Z,26.49
2018-05-07T16:44:23.183Z,26.38
2018-05-07T16:46:51.673Z,26.29
2018-05-07T16:49:20.116Z,26.39
2018-05-07T16:51:48.548Z,26.13
2018-05-07T16:54:17.791Z,26.23
2018-05-07T16:56:46.799Z,26.19
2018-05-07T16:59:16.037Z,26.17
2018-05-07T17:01:44.487Z,25.99
2018-05-07T17:04:12.928Z,26.10
2018-05-07T17:06:41.394Z,26.35
2018-05-07T17:09:09.834Z,26.03
2018-05-07T17:11:38.285Z,26.21
2018-05-07T17:14:06.764Z,25.96
2018-05-07T17:16:35.250Z,26.18
2018-05-07T17:19:03.984Z,25.87
2018-05-07T17:21:32.897Z,25.87
2018-05-07T17:24:01.451Z,25.99
2018-05-07T17:26:29.883Z,25.66
2018-05-07T17:28:58.375Z,25.59
2018-05-07T17:31:26.838Z,25.57
2018-05-07T17:33:55.405Z,25.48
2018-05-07T17:36:23.873Z,25.53
2018-05-07T17:38:52.311Z,25.37
2018-05-07T17:41:20.750Z,25.20
2018-05-07T17:43:49.191Z,25.38
2018-05-07T17:46:31.295Z,25.23
2018-05-07T17:48:59.782Z,25.17
2018-05-07T17:51:29.006Z,25.05
2018-05-07T17:53:57.447Z,24.88
2018-05-07T17:56:25.989Z,24.80
2018-05-07T17:58:54.434Z,24.90
2018-05-07T18:01:22.937Z,24.76
2018-05-07T18:03:51.384Z,24.55
2018-05-07T18:06:19.831Z,24.53
2018-05-07T18:08:48.349Z,24.65
2018-05-07T18:11:16.804Z,24.43
2018-05-07T18:13:45.262Z,24.24
2018-05-07T18:16:13.740Z,24.14
2018-05-07T18:18:42.321Z,24.19
2018-05-07T18:21:10.690Z,24.31
2018-05-07T18:23:39.178Z,24.24
2018-05-07T18:26:08.402Z,23.85
2018-05-07T18:28:40.213Z,24.03
2018-05-07T18:31:08.726Z,24.07
2018-05-07T18:33:37.280Z,23.73
2018-05-07T18:36:06.072Z,23.94
2018-05-07T18:38:34.631Z,24.00
2018-05-07T18:41:03.220Z,23.69
2018-05-07T18:43:31.740Z,23.81
2018-05-07T18:46:00.265Z,23.56
2018-05-07T18:48:28.994Z,23.32
2018-05-07T18:50:57.545Z,23.54
2018-05-07T18:53:26.303Z,23.16
2018-05-07T18:55:55.781Z,23.35
2018-05-07T18:58:25.522Z,22.99
2018-05-07T19:00:54.793Z,23.32
2018-05-07T19:03:24.501Z,23.40
2018-05-07T19:05:54.015Z,23.20
2018-05-07T19:08:23.607Z,23.12
2018-05-07T19:10:52.588Z,23.01
2018-05-07T19:13:21.439Z,22.73
2018-05-07T19:15:50.159Z,22.92
2018-05-07T19:18:19.648Z,23.38
2018-05-07T19:20:49.554Z,23.13
2018-05-07T19:23:18.433Z,23.02
2018-05-07T19:25:48.025Z,22.83
2018-05-07T19:28:17.540Z,23.03
2018-05-07T19:30:46.884Z,22.85
2018-05-07T19:33:16.303Z,22.62
2018-05-07T19:35:45.341Z,22.63
2018-05-07T19:38:13.913Z,22.69
2018-05-07T19:40:42.651Z,22.68
2018-05-07T19:43:11.113Z,22.54
2018-05-07T19:45:39.567Z,22.30
2018-05-07T19:48:08.063Z,22.45
2018-05-07T19:50:36.553Z,22.40
2018-05-07T19:53:05.256Z,22.18
2018-05-07T19:55:34.620Z,22.01
2018-05-07T19:58:03.121Z,21.75
2018-05-07T20:00:31.547Z,22.07
2018-05-07T20:03:00.292Z,22.00
2018-05-07T20:05:28.754Z,21.82
2018-05-07T20:07:57.235Z,22.16
2018-05-07T20:10:26.492Z,22.05
2018-05-07T20:12:54.965Z,22.20
2018-05-07T20:15:24.239Z,21.77
2018-05-07T20:17:52.701Z,21.89
2018-05-07T20:20:21.157Z,21.47
2018-05-07T20:22:49.585Z,21.77
2018-05-07T20:25:18.077Z,21.61
2018-05-07T20:27:46.541Z,21.35
2018-05-07T20:30:15.058Z,21.37
2018-05-07T20:32:43.570Z,21.29
2018-05-07T20:35:12.093Z,21.29
2018-05-07T20:37:40.559Z,21.48
2018-05-07T20:40:09.072Z,21.32
2018-05-07T20:42:37.603Z,21.43
2018-05-07T20:45:08.153Z,21.51
2018-05-07T20:47:36.630Z,21.13
2018-05-07T20:50:05.872Z,21.44
2018-05-07T20:52:34.314Z,21.36
2018-05-07T20:55:02.809Z,21.43
2018-05-07T20:57:31.262Z,21.32
2018-05-07T21:00:00.475Z,20.94
2018-05-07T21:02:28.924Z,20.91
2018-05-07T21:05:01.747Z,20.96
2018-05-07T21:07:30.210Z,20.84
2018-05-07T21:09:59.689Z,20.72
2018-05-07T21:12:28.204Z,20.84
2018-05-07T21:14:56.708Z,20.89
2018-05-07T21:17:25.510Z,21.18
2018-05-07T21:19:53.966Z,20.71
2018-05-07T21:22:22.484Z,20.98
2018-05-07T21:24:50.994Z,20.48
2018-05-07T21:27:19.477Z,20.58
2018-05-07T21:29:47.922Z,20.64
2018-05-07T21:32:16.376Z,20.54
2018-05-07T21:34:44.872Z,20.43
2018-05-07T21:37:13.323Z,20.43
2018-05-07T21:39:41.803Z,19.49
2018-05-07T21:42:11.483Z,19.72
2018-05-07T21:44:40.424Z,19.52
2018-05-07T21:47:08.937Z,19.11
2018-05-07T21:49:37.433Z,19.68
2018-05-07T21:52:05.953Z,20.05
2018-05-07T21:54:34.442Z,19.97
2018-05-07T21:57:05.005Z,19.57
2018-05-07T21:59:33.562Z,19.53
2018-05-07T22:02:02.915Z,19.42
2018-05-07T22:04:35.304Z,19.43
2018-05-07T22:07:04.114Z,19.12
2018-05-07T22:09:33.114Z,19.11
2018-05-07T22:12:01.589Z,18.73
2018-05-07T22:14:32.713Z,19.65
2018-05-07T22:17:01.276Z,18.78
2018-05-07T22:19:29.825Z,19.13
2018-05-07T22:21:58.330Z,18.74
2018-05-07T22:24:27.041Z,18.96
2018-05-07T22:26:55.563Z,18.29
2018-05-07T22:29:23.996Z,19.10
2018-05-07T22:31:52.519Z,18.72
2018-05-07T22:34:21.022Z,18.58
2018-05-07T22:36:50.866Z,18.05
2018-05-07T22:39:19.379Z,18.75
2018-05-07T22:41:49.998Z,17.83
2018-05-07T22:44:20.086Z,18.03
2018-05-07T22:46:48.830Z,18.15
2018-05-07T22:49:17.483Z,18.46
2018-05-07T22:51:47.273Z,18.63
2018-05-07T22:54:16.356Z,18.63
2018-05-07T22:56:45.500Z,19.27
2018-05-07T22:59:14.065Z,18.75
2018-05-07T23:01:46.407Z,18.82
2018-05-07T23:04:15.162Z,18.11
2018-05-07T23:06:43.729Z,17.43
2018-05-07T23:09:12.189Z,17.45
2018-05-07T23:11:40.643Z,17.56
2018-05-07T23:14:09.145Z,17.52
2018-05-07T23:16:37.613Z,17.36
2018-05-07T23:19:06.044Z,17.11
2018-05-07T23:21:34.553Z,16.96
2018-05-07T23:24:03.089Z,16.70
2018-05-07T23:26:31.672Z,16.81
2018-05-07T23:29:00.169Z,16.84
2018-05-07T23:31:29.369Z,17.06
2018-05-07T23:33:57.845Z,16.78
2018-05-07T23:36:26.460Z,17.71
2018-05-07T23:38:55.267Z,17.61
2018-05-07T23:41:25.101Z,18.10
2018-05-07T23:43:53.595Z,17.79
2018-05-07T23:46:24.232Z,17.20
2018-05-07T23:48:52.765Z,17.07
2018-05-07T23:51:21.439Z,16.64
2018-05-07T23:53:50.686Z,16.14
2018-05-07T23:56:37.325Z,16.14
2018-05-07T23:59:07.756Z,16.43
